createdAt,value
2022-12-25T00:03:09.751Z,6.32
2022-12-25T00:08:30.793Z,6.36
2022-12-25T00:13:51.443Z,6.41
2022-12-25T00:19:11.990Z,6.41
2022-12-25T00:24:32.331Z,6.25
2022-12-25T00:29:52.937Z,6.23
2022-12-25T00:35:14.194Z,6.20
2022-12-25T00:40:35.004Z,6.12
2022-12-25T00:45:57.923Z,6.14
2022-12-25T00:51:18.578Z,6.16
2022-12-25T00:56:40.004Z,6.14
2022-12-25T01:02:21.361Z,6.21
2022-12-25T01:07:42.306Z,6.25
2022-12-25T01:13:02.960Z,6.17
2022-12-25T01:18:24.848Z,6.18
2022-12-25T01:23:45.684Z,6.13
2022-12-25T01:29:06.088Z,6.05
2022-12-25T01:34:26.829Z,6.07
2022-12-25T01:39:47.600Z,6.06
2022-12-25T01:45:26.258Z,6.00
2022-12-25T01:50:55.566Z,5.93
2022-12-25T01:56:16.377Z,5.92
2022-12-25T02:01:37.249Z,5.91
2022-12-25T02:06:58.237Z,5.86
2022-12-25T02:12:28.179Z,5.82
2022-12-25T02:18:07.047Z,5.72
2022-12-25T02:23:33.145Z,5.78
2022-12-25T02:29:02.825Z,5.61
2022-12-25T02:34:44.307Z,5.55
2022-12-25T02:40:17.353Z,5.55
2022-12-25T02:46:04.900Z,5.57
2022-12-25T02:51:47.727Z,5.50
2022-12-25T02:57:29.810Z,5.48
2022-12-25T03:03:11.693Z,5.57
2022-12-25T03:08:40.030Z,5.59
2022-12-25T03:14:26.151Z,5.66
2022-12-25T03:20:05.486Z,5.73
2022-12-25T03:25:44.854Z,5.68
2022-12-25T03:31:27.912Z,5.44
2022-12-25T03:37:28.366Z,5.30
2022-12-25T03:43:15.284Z,5.17
2022-12-25T03:48:58.351Z,5.11
2022-12-25T03:54:41.629Z,5.01
2022-12-25T04:00:20.642Z,4.90
2022-12-25T04:06:00.948Z,4.82
2022-12-25T04:11:39.873Z,4.71
2022-12-25T04:17:18.883Z,4.62
2022-12-25T04:22:57.962Z,4.58
2022-12-25T04:28:37.228Z,4.62
2022-12-25T04:34:16.767Z,4.73
2022-12-25T04:39:38.455Z,4.75
2022-12-25T04:45:00.540Z,4.80
2022-12-25T04:50:21.135Z,4.75
2022-12-25T04:55:42.202Z,4.69
2022-12-25T05:01:04.331Z,4.69
2022-12-25T05:06:26.319Z,4.66
2022-12-25T05:11:46.988Z,4.60
2022-12-25T05:17:08.075Z,4.58
2022-12-25T05:22:28.709Z,4.43
2022-12-25T05:27:53.836Z,4.34
2022-12-25T05:33:15.040Z,4.27
2022-12-25T05:38:36.163Z,4.26
2022-12-25T05:43:56.737Z,4.19
2022-12-25T05:49:17.620Z,4.18
2022-12-25T05:54:38.606Z,4.18
2022-12-25T05:59:59.682Z,4.20
2022-12-25T06:05:22.275Z,4.14
2022-12-25T06:10:43.123Z,4.14
2022-12-25T06:16:09.210Z,4.13
2022-12-25T06:21:29.907Z,4.15
2022-12-25T06:26:50.525Z,4.14
2022-12-25T06:32:11.103Z,4.12
2022-12-25T06:37:31.958Z,4.10
2022-12-25T06:42:52.725Z,4.15
2022-12-25T06:48:13.110Z,4.34
2022-12-25T06:53:40.439Z,4.40
2022-12-25T06:59:09.528Z,4.39
2022-12-25T07:04:38.305Z,4.44
2022-12-25T07:09:58.622Z,4.44
2022-12-25T07:15:19.063Z,4.40
2022-12-25T07:20:39.913Z,4.39
2022-12-25T07:26:01.573Z,4.39
2022-12-25T07:31:22.056Z,4.42
2022-12-25T07:36:44.928Z,4.39
2022-12-25T07:42:05.206Z,4.48
2022-12-25T07:47:25.569Z,4.52
2022-12-25T07:52:46.994Z,4.65
2022-12-25T07:58:07.804Z,4.71
2022-12-25T08:03:28.633Z,4.74
2022-12-25T08:08:49.344Z,4.84
2022-12-25T08:14:10.105Z,4.89
2022-12-25T08:19:30.572Z,4.91
2022-12-25T08:24:51.432Z,4.96
2022-12-25T08:30:12.210Z,4.98
2022-12-25T08:35:36.197Z,4.99
2022-12-25T08:40:57.071Z,5.13
2022-12-25T08:46:17.892Z,5.28
2022-12-25T08:51:39.037Z,5.28
2022-12-25T08:57:02.881Z,5.26
2022-12-25T09:02:24.585Z,5.30
2022-12-25T09:07:45.302Z,5.27
2022-12-25T09:13:05.691Z,5.25
2022-12-25T09:18:27.956Z,5.31
2022-12-25T09:23:48.785Z,5.38
2022-12-25T09:29:09.264Z,5.51
2022-12-25T09:34:30.917Z,5.58
2022-12-25T09:39:51.462Z,5.79
2022-12-25T09:45:30.036Z,5.67
2022-12-25T09:50:54.845Z,5.53
2022-12-25T09:56:25.816Z,5.47
2022-12-25T10:02:25.269Z,5.48
2022-12-25T10:08:21.657Z,5.44
2022-12-25T10:14:07.976Z,5.29
2022-12-25T10:19:46.617Z,5.14
2022-12-25T10:25:16.640Z,5.14
2022-12-25T10:30:40.956Z,5.16
2022-12-25T10:36:01.858Z,5.07
2022-12-25T10:41:41.815Z,5.00
2022-12-25T10:47:04.525Z,5.03
2022-12-25T10:52:27.421Z,5.02
2022-12-25T10:57:47.946Z,5.17
2022-12-25T11:03:28.412Z,5.22
2022-12-25T11:08:58.325Z,5.28
2022-12-25T11:14:21.088Z,5.39
2022-12-25T11:19:52.783Z,5.43
2022-12-25T11:25:15.079Z,5.50
2022-12-25T11:30:37.441Z,5.53
2022-12-25T11:36:02.924Z,5.53
2022-12-25T11:41:31.792Z,5.55
2022-12-25T11:46:55.988Z,5.54
2022-12-25T11:52:18.476Z,5.40
2022-12-25T11:57:41.183Z,5.29
2022-12-25T12:03:06.976Z,5.29
2022-12-25T12:08:28.697Z,5.33
2022-12-25T12:14:12.165Z,5.34
2022-12-25T12:19:34.747Z,5.44
2022-12-25T12:25:01.460Z,5.47
2022-12-25T12:30:32.945Z,5.44
2022-12-25T12:35:53.837Z,5.42
2022-12-25T12:41:16.332Z,5.43
2022-12-25T12:46:37.415Z,5.38
2022-12-25T12:52:24.752Z,5.23
2022-12-25T12:57:45.351Z,5.20
2022-12-25T13:03:23.993Z,5.18
2022-12-25T13:09:15.326Z,5.21
2022-12-25T13:14:37.940Z,5.31
2022-12-25T13:20:00.988Z,5.32
2022-12-25T13:25:22.810Z,5.35
2022-12-25T13:30:43.540Z,5.43
2022-12-25T13:36:05.934Z,5.57
2022-12-25T13:42:05.411Z,5.58
2022-12-25T13:47:34.885Z,5.51
2022-12-25T13:52:57.453Z,5.53
2022-12-25T13:58:33.289Z,5.51
2022-12-25T14:03:54.204Z,5.57
2022-12-25T14:09:16.473Z,5.62
2022-12-25T14:14:37.391Z,5.71
2022-12-25T14:20:06.005Z,5.75
2022-12-25T14:25:35.613Z,5.65
2022-12-25T14:30:56.265Z,5.53
2022-12-25T14:36:16.930Z,5.39
2022-12-25T14:41:42.038Z,5.36
2022-12-25T14:47:23.729Z,5.28
2022-12-25T14:52:45.260Z,5.30
2022-12-25T14:58:08.028Z,5.24
2022-12-25T15:03:38.371Z,5.20
2022-12-25T15:09:04.564Z,5.25
2022-12-25T15:14:26.430Z,5.28
2022-12-25T15:19:46.733Z,5.29
2022-12-25T15:25:14.290Z,5.29
2022-12-25T15:30:39.160Z,5.34
2022-12-25T15:35:59.585Z,5.47
2022-12-25T15:41:43.008Z,5.56
2022-12-25T15:47:04.147Z,5.68
2022-12-25T15:52:24.728Z,5.76
2022-12-25T15:57:47.477Z,5.78
2022-12-25T16:03:08.005Z,5.76
2022-12-25T16:08:28.864Z,5.77
2022-12-25T16:13:49.094Z,5.82
2022-12-25T16:19:09.403Z,5.85
2022-12-25T16:24:29.738Z,5.82
2022-12-25T16:29:50.088Z,5.86
2022-12-25T16:35:11.615Z,5.94
2022-12-25T16:40:32.099Z,5.99
2022-12-25T16:45:52.611Z,6.04
2022-12-25T16:51:19.025Z,5.97
2022-12-25T16:56:39.382Z,5.99
2022-12-25T17:02:00.164Z,5.96
2022-12-25T17:07:21.164Z,6.01
2022-12-25T17:12:42.418Z,5.99
2022-12-25T17:18:02.789Z,5.96
2022-12-25T17:23:23.061Z,5.86
2022-12-25T17:28:45.308Z,5.81
2022-12-25T17:34:06.111Z,5.83
2022-12-25T17:39:26.692Z,5.82
2022-12-25T17:44:47.277Z,5.72
2022-12-25T17:50:08.260Z,5.69
2022-12-25T17:55:34.082Z,5.75
2022-12-25T18:00:54.672Z,5.79
2022-12-25T18:06:17.770Z,5.85
2022-12-25T18:11:40.466Z,5.88
2022-12-25T18:17:00.666Z,5.90
2022-12-25T18:22:22.097Z,5.94
2022-12-25T18:27:42.924Z,6.00
2022-12-25T18:33:03.206Z,6.06
2022-12-25T18:38:23.493Z,6.08
2022-12-25T18:43:53.769Z,6.05
2022-12-25T18:49:16.078Z,6.02
2022-12-25T18:54:36.490Z,6.03
2022-12-25T18:59:57.051Z,6.05
2022-12-25T19:05:17.590Z,6.01
2022-12-25T19:10:39.575Z,6.00
2022-12-25T19:15:59.994Z,5.96
2022-12-25T19:21:20.183Z,5.98
2022-12-25T19:26:40.472Z,5.97
2022-12-25T19:32:01.030Z,5.96
2022-12-25T19:37:21.611Z,5.94
2022-12-25T19:42:42.011Z,5.98
2022-12-25T19:48:02.351Z,5.95
2022-12-25T19:53:24.125Z,5.92
2022-12-25T19:58:45.298Z,5.88
2022-12-25T20:04:08.681Z,5.90
2022-12-25T20:09:30.491Z,5.87
2022-12-25T20:14:51.173Z,5.86
2022-12-25T20:20:11.823Z,5.88
2022-12-25T20:25:32.422Z,5.90
2022-12-25T20:30:52.695Z,5.86
2022-12-25T20:36:14.877Z,5.86
2022-12-25T20:41:35.661Z,5.86
2022-12-25T20:46:59.367Z,5.89
2022-12-25T20:52:20.040Z,5.89
2022-12-25T20:57:40.520Z,5.81
2022-12-25T21:03:01.273Z,5.79
2022-12-25T21:08:24.687Z,5.76
2022-12-25T21:13:46.261Z,5.78
2022-12-25T21:19:06.743Z,5.68
2022-12-25T21:24:27.160Z,5.64
2022-12-25T21:29:47.534Z,5.62
2022-12-25T21:35:08.502Z,5.68
2022-12-25T21:40:29.238Z,5.76
2022-12-25T21:45:49.845Z,5.73
2022-12-25T21:51:35.124Z,5.67
2022-12-25T21:56:55.565Z,5.70
2022-12-25T22:02:16.336Z,5.69
2022-12-25T22:07:37.036Z,5.66
2022-12-25T22:13:16.681Z,5.62
2022-12-25T22:18:55.983Z,5.60
2022-12-25T22:24:16.323Z,5.59
2022-12-25T22:29:37.348Z,5.52
2022-12-25T22:34:58.252Z,5.50
2022-12-25T22:40:20.135Z,5.53
2022-12-25T22:45:40.659Z,5.51
2022-12-25T22:51:03.255Z,5.54
2022-12-25T22:56:23.910Z,5.59
2022-12-25T23:01:45.115Z,5.62
2022-12-25T23:07:06.028Z,5.62
2022-12-25T23:12:45.288Z,5.57
2022-12-25T23:18:24.552Z,5.53
2022-12-25T23:24:03.912Z,5.47
2022-12-25T23:29:36.300Z,5.47
2022-12-25T23:34:57.068Z,5.43
2022-12-25T23:40:17.685Z,5.38
2022-12-25T23:45:39.808Z,5.21
2022-12-25T23:51:06.128Z,5.22
2022-12-25T23:56:26.701Z,5.24
